sensor_id;sensor_type;location;lat;lon;timestamp;temperature;humidity
9385;DHT22;4732;49.340;10.886;2023-04-30T03:01:36;9.30;99.90
9385;DHT22;4732;49.340;10.886;2023-04-30T03:04:02;9.30;99.90
9385;DHT22;4732;49.340;10.886;2023-04-30T03:06:29;9.30;99.90
9385;DHT22;4732;49.340;10.886;2023-04-30T03:08:55;9.20;99.90
9385;DHT22;4732;49.340;10.886;2023-04-30T03:11:21;9.20;99.90
9385;DHT22;4732;49.340;10.886;2023-04-30T03:13:47;9.30;99.90
9385;DHT22;4732;49.340;10.886;2023-04-30T03:16:17;9.20;99.90
9385;DHT22;4732;49.340;10.886;2023-04-30T03:18:43;9.20;99.90
9385;DHT22;4732;49.340;10.886;2023-04-30T03:21:09;9.20;99.90
9385;DHT22;4732;49.340;10.886;2023-04-30T03:23:34;9.30;99.90
9385;DHT22;4732;49.340;10.886;2023-04-30T03:26:00;9.20;99.90
9385;DHT22;4732;49.340;10.886;2023-04-30T03:28:26;9.30;99.90
9385;DHT22;4732;49.340;10.886;2023-04-30T03:30:51;9.30;99.90
9385;DHT22;4732;49.340;10.886;2023-04-30T03:33:17;9.30;99.90
9385;DHT22;4732;49.340;10.886;2023-04-30T03:35:42;9.20;99.90
9385;DHT22;4732;49.340;10.886;2023-04-30T03:38:08;9.20;99.90
9385;DHT22;4732;49.340;10.886;2023-04-30T03:40:33;9.30;99.90
9385;DHT22;4732;49.340;10.886;2023-04-30T03:42:59;9.20;99.90
9385;DHT22;4732;49.340;10.886;2023-04-30T03:45:25;9.20;99.90
9385;DHT22;4732;49.340;10.886;2023-04-30T03:47:50;9.20;99.90
9385;DHT22;4732;49.340;10.886;2023-04-30T03:50:17;9.20;99.90
9385;DHT22;4732;49.340;10.886;2023-04-30T03:52:43;9.20;99.90
9385;DHT22;4732;49.340;10.886;2023-04-30T03:55:09;9.20;99.90
9385;DHT22;4732;49.340;10.886;2023-04-30T03:57:35;9.20;99.90
9385;DHT22;4732;49.340;10.886;2023-04-30T04:00:01;9.10;99.90
9385;DHT22;4732;49.340;10.886;2023-04-30T04:02:30;9.00;99.90
9385;DHT22;4732;49.340;10.886;2023-04-30T04:04:56;9.00;99.90
9385;DHT22;4732;49.340;10.886;2023-04-30T04:07:21;9.00;99.90
9385;DHT22;4732;49.340;10.886;2023-04-30T04:09:47;8.90;99.90
9385;DHT22;4732;49.340;10.886;2023-04-30T04:12:13;8.80;99.90
9385;DHT22;4732;49.340;10.886;2023-04-30T04:14:38;8.80;99.90
9385;DHT22;4732;49.340;10.886;2023-04-30T04:17:04;8.80;99.90
9385;DHT22;4732;49.340;10.886;2023-04-30T04:19:30;8.80;99.90
9385;DHT22;4732;49.340;10.886;2023-04-30T04:21:55;8.80;99.90
9385;DHT22;4732;49.340;10.886;2023-04-30T04:24:26;8.80;99.90
9385;DHT22;4732;49.340;10.886;2023-04-30T04:26:52;8.80;99.90
9385;DHT22;4732;49.340;10.886;2023-04-30T04:29:18;8.90;99.90
9385;DHT22;4732;49.340;10.886;2023-04-30T04:31:43;8.90;99.90
9385;DHT22;4732;49.340;10.886;2023-04-30T04:34:09;8.90;99.90
9385;DHT22;4732;49.340;10.886;2023-04-30T04:36:35;8.90;99.90
9385;DHT22;4732;49.340;10.886;2023-04-30T04:39:01;8.90;99.90
9385;DHT22;4732;49.340;10.886;2023-04-30T04:41:30;8.80;99.90
9385;DHT22;4732;49.340;10.886;2023-04-30T04:44:00;8.90;99.90
9385;DHT22;4732;49.340;10.886;2023-04-30T04:46:26;8.90;99.90
9385;DHT22;4732;49.340;10.886;2023-04-30T04:48:52;8.90;99.90
9385;DHT22;4732;49.340;10.886;2023-04-30T04:51:18;8.90;99.90
9385;DHT22;4732;49.340;10.886;2023-04-30T04:53:44;9.00;99.90
9385;DHT22;4732;49.340;10.886;2023-04-30T04:56:09;9.00;99.90
9385;DHT22;4732;49.340;10.886;2023-04-30T04:58:35;9.00;99.90
9385;DHT22;4732;49.340;10.886;2023-04-30T05:01:01;9.00;99.90
9385;DHT22;4732;49.340;10.886;2023-04-30T05:03:27;9.00;99.90
9385;DHT22;4732;49.340;10.886;2023-04-30T05:05:53;9.10;99.90
9385;DHT22;4732;49.340;10.886;2023-04-30T05:08:19;9.10;99.90
9385;DHT22;4732;49.340;10.886;2023-04-30T05:10:44;9.10;99.90
9385;DHT22;4732;49.340;10.886;2023-04-30T05:13:10;9.10;99.90
9385;DHT22;4732;49.340;10.886;2023-04-30T05:15:36;9.20;99.90
9385;DHT22;4732;49.340;10.886;2023-04-30T05:18:02;9.30;99.90
9385;DHT22;4732;49.340;10.886;2023-04-30T05:20:27;9.30;99.90
9385;DHT22;4732;49.340;10.886;2023-04-30T05:22:53;9.30;99.90
9385;DHT22;4732;49.340;10.886;2023-04-30T05:25:18;9.40;99.90
9385;DHT22;4732;49.340;10.886;2023-04-30T05:27:44;9.50;99.90
9385;DHT22;4732;49.340;10.886;2023-04-30T05:30:10;9.50;99.90
9385;DHT22;4732;49.340;10.886;2023-04-30T05:32:35;9.50;99.90
9385;DHT22;4732;49.340;10.886;2023-04-30T05:35:01;9.60;99.90
9385;DHT22;4732;49.340;10.886;2023-04-30T05:37:26;9.60;99.90
9385;DHT22;4732;49.340;10.886;2023-04-30T05:39:52;9.70;99.90
9385;DHT22;4732;49.340;10.886;2023-04-30T05:42:19;9.80;99.90
9385;DHT22;4732;49.340;10.886;2023-04-30T05:44:44;9.90;99.90
9385;DHT22;4732;49.340;10.886;2023-04-30T05:47:10;10.10;99.90
9385;DHT22;4732;49.340;10.886;2023-04-30T05:49:36;10.30;99.90
9385;DHT22;4732;49.340;10.886;2023-04-30T05:52:01;10.40;99.90
9385;DHT22;4732;49.340;10.886;2023-04-30T05:54:28;10.40;99.90
9385;DHT22;4732;49.340;10.886;2023-04-30T05:56:54;10.50;99.90
9385;DHT22;4732;49.340;10.886;2023-04-30T05:59:19;10.50;99.90
9385;DHT22;4732;49.340;10.886;2023-04-30T06:04:11;10.80;99.90
9385;DHT22;4732;49.340;10.886;2023-04-30T06:06:36;10.90;99.90
9385;DHT22;4732;49.340;10.886;2023-04-30T06:09:02;11.00;99.90
9385;DHT22;4732;49.340;10.886;2023-04-30T06:11:29;11.20;99.90
9385;DHT22;4732;49.340;10.886;2023-04-30T06:13:54;11.30;99.90
9385;DHT22;4732;49.340;10.886;2023-04-30T06:16:20;11.50;99.90
9385;DHT22;4732;49.340;10.886;2023-04-30T06:18:46;11.50;99.90
9385;DHT22;4732;49.340;10.886;2023-04-30T06:21:11;11.60;99.90
9385;DHT22;4732;49.340;10.886;2023-04-30T06:23:36;11.60;99.90
9385;DHT22;4732;49.340;10.886;2023-04-30T06:26:02;11.60;99.90
9385;DHT22;4732;49.340;10.886;2023-04-30T06:28:28;11.60;99.90
9385;DHT22;4732;49.340;10.886;2023-04-30T06:30:53;11.60;99.90
9385;DHT22;4732;49.340;10.886;2023-04-30T06:33:20;11.60;99.90
9385;DHT22;4732;49.340;10.886;2023-04-30T06:35:45;11.60;99.90
9385;DHT22;4732;49.340;10.886;2023-04-30T06:38:12;11.50;99.90
9385;DHT22;4732;49.340;10.886;2023-04-30T06:40:37;11.40;99.90
9385;DHT22;4732;49.340;10.886;2023-04-30T06:43:03;11.50;99.90
9385;DHT22;4732;49.340;10.886;2023-04-30T06:45:28;11.60;99.90
9385;DHT22;4732;49.340;10.886;2023-04-30T06:47:54;11.80;99.90
9385;DHT22;4732;49.340;10.886;2023-04-30T06:50:20;11.90;99.90
9385;DHT22;4732;49.340;10.886;2023-04-30T06:52:48;12.10;99.90
9385;DHT22;4732;49.340;10.886;2023-04-30T06:55:14;12.30;99.90
9385;DHT22;4732;49.340;10.886;2023-04-30T06:57:39;12.40;99.90
9385;DHT22;4732;49.340;10.886;2023-04-30T07:00:05;12.50;99.90
9385;DHT22;4732;49.340;10.886;2023-04-30T07:02:31;12.50;99.90
9385;DHT22;4732;49.340;10.886;2023-04-30T07:04:57;12.70;99.90
9385;DHT22;4732;49.340;10.886;2023-04-30T07:07:23;12.70;99.90
9385;DHT22;4732;49.340;10.886;2023-04-30T07:09:48;12.80;99.90
9385;DHT22;4732;49.340;10.886;2023-04-30T07:12:15;12.80;99.90
9385;DHT22;4732;49.340;10.886;2023-04-30T07:14:40;12.80;99.90
9385;DHT22;4732;49.340;10.886;2023-04-30T07:17:06;12.90;99.90
9385;DHT22;4732;49.340;10.886;2023-04-30T07:19:32;13.00;99.90
9385;DHT22;4732;49.340;10.886;2023-04-30T07:21:57;12.90;99.90
9385;DHT22;4732;49.340;10.886;2023-04-30T07:24:23;13.00;99.90
9385;DHT22;4732;49.340;10.886;2023-04-30T07:26:49;13.00;99.90
9385;DHT22;4732;49.340;10.886;2023-04-30T07:29:15;13.10;99.90
9385;DHT22;4732;49.340;10.886;2023-04-30T07:31:40;13.10;99.90
9385;DHT22;4732;49.340;10.886;2023-04-30T07:34:06;13.20;99.90
9385;DHT22;4732;49.340;10.886;2023-04-30T07:36:31;13.20;99.90
9385;DHT22;4732;49.340;10.886;2023-04-30T07:38:57;13.30;99.90
9385;DHT22;4732;49.340;10.886;2023-04-30T07:41:23;13.30;99.90
9385;DHT22;4732;49.340;10.886;2023-04-30T07:43:49;13.40;99.90
9385;DHT22;4732;49.340;10.886;2023-04-30T07:46:14;13.50;99.90
9385;DHT22;4732;49.340;10.886;2023-04-30T07:48:40;13.50;99.90
9385;DHT22;4732;49.340;10.886;2023-04-30T07:51:05;13.60;99.90
9385;DHT22;4732;49.340;10.886;2023-04-30T07:53:31;13.60;99.90
9385;DHT22;4732;49.340;10.886;2023-04-30T07:55:56;13.70;99.90
9385;DHT22;4732;49.340;10.886;2023-04-30T07:58:22;13.80;99.90
9385;DHT22;4732;49.340;10.886;2023-04-30T08:00:47;13.60;99.90
9385;DHT22;4732;49.340;10.886;2023-04-30T08:03:13;13.60;99.90
9385;DHT22;4732;49.340;10.886;2023-04-30T08:05:38;13.60;99.90
9385;DHT22;4732;49.340;10.886;2023-04-30T08:08:05;13.70;99.90
9385;DHT22;4732;49.340;10.886;2023-04-30T08:10:30;13.90;99.90
9385;DHT22;4732;49.340;10.886;2023-04-30T08:12:56;14.00;99.90
9385;DHT22;4732;49.340;10.886;2023-04-30T08:15:22;14.20;99.90
9385;DHT22;4732;49.340;10.886;2023-04-30T08:17:48;14.40;99.90
9385;DHT22;4732;49.340;10.886;2023-04-30T08:20:14;14.60;99.90
9385;DHT22;4732;49.340;10.886;2023-04-30T08:22:40;14.60;99.90
9385;DHT22;4732;49.340;10.886;2023-04-30T08:25:06;14.40;99.90
9385;DHT22;4732;49.340;10.886;2023-04-30T08:27:31;14.40;99.90
9385;DHT22;4732;49.340;10.886;2023-04-30T08:29:57;14.50;99.90
9385;DHT22;4732;49.340;10.886;2023-04-30T08:32:23;14.70;99.90
9385;DHT22;4732;49.340;10.886;2023-04-30T08:34:48;14.80;99.90
9385;DHT22;4732;49.340;10.886;2023-04-30T08:37:14;14.80;99.90
9385;DHT22;4732;49.340;10.886;2023-04-30T08:39:40;14.70;99.90
9385;DHT22;4732;49.340;10.886;2023-04-30T08:42:08;14.50;99.90
9385;DHT22;4732;49.340;10.886;2023-04-30T08:44:35;14.30;99.90
9385;DHT22;4732;49.340;10.886;2023-04-30T08:47:06;14.20;99.90
9385;DHT22;4732;49.340;10.886;2023-04-30T08:49:32;14.00;99.90
9385;DHT22;4732;49.340;10.886;2023-04-30T08:51:59;13.80;99.90
9385;DHT22;4732;49.340;10.886;2023-04-30T08:54:25;13.90;99.90
9385;DHT22;4732;49.340;10.886;2023-04-30T08:56:52;13.90;99.90
9385;DHT22;4732;49.340;10.886;2023-04-30T08:59:18;14.00;99.90
9385;DHT22;4732;49.340;10.886;2023-04-30T09:01:43;14.10;99.90
9385;DHT22;4732;49.340;10.886;2023-04-30T09:04:09;14.10;99.90
9385;DHT22;4732;49.340;10.886;2023-04-30T09:06:34;14.20;99.90
9385;DHT22;4732;49.340;10.886;2023-04-30T09:09:14;14.20;99.90
9385;DHT22;4732;49.340;10.886;2023-04-30T09:11:40;14.20;99.90
9385;DHT22;4732;49.340;10.886;2023-04-30T09:14:06;14.20;99.90
9385;DHT22;4732;49.340;10.886;2023-04-30T09:16:46;14.30;99.90
9385;DHT22;4732;49.340;10.886;2023-04-30T09:19:26;14.20;99.90
9385;DHT22;4732;49.340;10.886;2023-04-30T09:21:52;14.30;99.90
9385;DHT22;4732;49.340;10.886;2023-04-30T09:24:18;14.30;99.90
9385;DHT22;4732;49.340;10.886;2023-04-30T09:26:44;14.40;99.90
9385;DHT22;4732;49.340;10.886;2023-04-30T09:29:14;14.40;99.90
9385;DHT22;4732;49.340;10.886;2023-04-30T09:31:42;14.60;99.90
9385;DHT22;4732;49.340;10.886;2023-04-30T09:34:09;14.90;99.90
9385;DHT22;4732;49.340;10.886;2023-04-30T09:36:35;15.10;99.90
9385;DHT22;4732;49.340;10.886;2023-04-30T09:39:11;15.30;99.90
9385;DHT22;4732;49.340;10.886;2023-04-30T09:41:38;15.30;99.90
9385;DHT22;4732;49.340;10.886;2023-04-30T09:44:04;15.30;99.90
9385;DHT22;4732;49.340;10.886;2023-04-30T09:46:31;15.20;99.90
9385;DHT22;4732;49.340;10.886;2023-04-30T09:48:58;15.20;99.90
9385;DHT22;4732;49.340;10.886;2023-04-30T09:51:24;15.20;99.90
9385;DHT22;4732;49.340;10.886;2023-04-30T09:53:51;15.30;99.90
9385;DHT22;4732;49.340;10.886;2023-04-30T09:56:24;15.30;99.90
9385;DHT22;4732;49.340;10.886;2023-04-30T09:58:55;15.30;99.90
9385;DHT22;4732;49.340;10.886;2023-04-30T10:01:22;15.30;99.90
9385;DHT22;4732;49.340;10.886;2023-04-30T10:03:50;15.30;99.90
9385;DHT22;4732;49.340;10.886;2023-04-30T10:06:17;15.30;99.90
9385;DHT22;4732;49.340;10.886;2023-04-30T10:08:47;15.20;99.90
9385;DHT22;4732;49.340;10.886;2023-04-30T10:19:16;16.50;99.90
9385;DHT22;4732;49.340;10.886;2023-04-30T10:21:45;16.80;99.90
9385;DHT22;4732;49.340;10.886;2023-04-30T10:24:13;17.00;99.90
9385;DHT22;4732;49.340;10.886;2023-04-30T10:26:40;17.20;99.90
9385;DHT22;4732;49.340;10.886;2023-04-30T10:29:06;17.30;99.90
9385;DHT22;4732;49.340;10.886;2023-04-30T10:31:33;17.50;99.90
9385;DHT22;4732;49.340;10.886;2023-04-30T10:36:50;17.50;99.90
9385;DHT22;4732;49.340;10.886;2023-04-30T10:39:22;17.80;99.90
9385;DHT22;4732;49.340;10.886;2023-04-30T10:41:48;18.10;99.90
9385;DHT22;4732;49.340;10.886;2023-04-30T10:44:16;18.40;99.90
9385;DHT22;4732;49.340;10.886;2023-04-30T10:46:45;18.50;99.90
9385;DHT22;4732;49.340;10.886;2023-04-30T10:49:11;18.60;99.90
9385;DHT22;4732;49.340;10.886;2023-04-30T10:51:49;18.80;99.90
9385;DHT22;4732;49.340;10.886;2023-04-30T10:54:27;18.80;99.90
9385;DHT22;4732;49.340;10.886;2023-04-30T10:56:54;18.70;98.70
9385;DHT22;4732;49.340;10.886;2023-04-30T10:59:33;18.50;99.90
9385;DHT22;4732;49.340;10.886;2023-04-30T11:02:00;18.20;99.40
9385;DHT22;4732;49.340;10.886;2023-04-30T11:04:26;17.80;99.90
9385;DHT22;4732;49.340;10.886;2023-04-30T11:09:18;17.50;99.90
9385;DHT22;4732;49.340;10.886;2023-04-30T11:11:45;17.30;99.90
9385;DHT22;4732;49.340;10.886;2023-04-30T11:14:12;17.40;99.90
9385;DHT22;4732;49.340;10.886;2023-04-30T11:16:37;17.80;99.90
9385;DHT22;4732;49.340;10.886;2023-04-30T11:19:09;18.10;99.90
9385;DHT22;4732;49.340;10.886;2023-04-30T11:27:28;18.80;98.00
9385;DHT22;4732;49.340;10.886;2023-04-30T11:29:57;18.70;97.40
9385;DHT22;4732;49.340;10.886;2023-04-30T11:32:25;18.30;98.70
9385;DHT22;4732;49.340;10.886;2023-04-30T11:34:51;18.10;98.00
9385;DHT22;4732;49.340;10.886;2023-04-30T11:37:35;17.90;97.70
9385;DHT22;4732;49.340;10.886;2023-04-30T11:40:09;18.00;98.70
9385;DHT22;4732;49.340;10.886;2023-04-30T11:42:36;18.50;99.90
9385;DHT22;4732;49.340;10.886;2023-04-30T11:45:15;18.90;97.70
9385;DHT22;4732;49.340;10.886;2023-04-30T11:47:49;18.70;95.20
9385;DHT22;4732;49.340;10.886;2023-04-30T11:50:17;18.30;96.40
9385;DHT22;4732;49.340;10.886;2023-04-30T11:52:50;18.20;97.50
9385;DHT22;4732;49.340;10.886;2023-04-30T11:55:18;18.10;98.40
9385;DHT22;4732;49.340;10.886;2023-04-30T11:57:48;18.20;98.50
9385;DHT22;4732;49.340;10.886;2023-04-30T12:00:16;18.10;97.60
9385;DHT22;4732;49.340;10.886;2023-04-30T12:02:44;18.20;98.20
9385;DHT22;4732;49.340;10.886;2023-04-30T12:05:21;18.40;99.30
9385;DHT22;4732;49.340;10.886;2023-04-30T12:10:21;18.30;97.40
9385;DHT22;4732;49.340;10.886;2023-04-30T12:12:48;18.10;97.60
9385;DHT22;4732;49.340;10.886;2023-04-30T12:15:19;17.80;97.60
9385;DHT22;4732;49.340;10.886;2023-04-30T12:17:47;17.90;99.40
9385;DHT22;4732;49.340;10.886;2023-04-30T12:20:13;18.40;98.50
9385;DHT22;4732;49.340;10.886;2023-04-30T12:25:08;19.40;95.80
9385;DHT22;4732;49.340;10.886;2023-04-30T12:27:36;19.60;96.20
9385;DHT22;4732;49.340;10.886;2023-04-30T12:30:06;19.20;96.40
9385;DHT22;4732;49.340;10.886;2023-04-30T12:32:43;18.90;96.20
9385;DHT22;4732;49.340;10.886;2023-04-30T12:35:13;18.60;97.50
9385;DHT22;4732;49.340;10.886;2023-04-30T12:37:44;18.40;97.80
9385;DHT22;4732;49.340;10.886;2023-04-30T12:40:13;18.10;95.60
9385;DHT22;4732;49.340;10.886;2023-04-30T12:42:41;18.00;97.70
9385;DHT22;4732;49.340;10.886;2023-04-30T12:45:08;18.00;97.90
9385;DHT22;4732;49.340;10.886;2023-04-30T12:47:38;18.10;97.20
9385;DHT22;4732;49.340;10.886;2023-04-30T12:50:08;18.30;95.90
9385;DHT22;4732;49.340;10.886;2023-04-30T12:52:34;18.40;97.20
9385;DHT22;4732;49.340;10.886;2023-04-30T12:58:05;18.70;95.90
9385;DHT22;4732;49.340;10.886;2023-04-30T13:00:48;18.90;95.80
9385;DHT22;4732;49.340;10.886;2023-04-30T13:03:16;19.30;97.50
9385;DHT22;4732;49.340;10.886;2023-04-30T13:05:51;19.60;98.90
9385;DHT22;4732;49.340;10.886;2023-04-30T13:08:18;20.00;96.10
9385;DHT22;4732;49.340;10.886;2023-04-30T13:10:44;19.70;94.90
9385;DHT22;4732;49.340;10.886;2023-04-30T13:13:12;19.40;95.10
9385;DHT22;4732;49.340;10.886;2023-04-30T13:15:37;19.00;95.00
9385;DHT22;4732;49.340;10.886;2023-04-30T13:18:03;18.90;96.30
9385;DHT22;4732;49.340;10.886;2023-04-30T13:20:29;18.80;95.00
9385;DHT22;4732;49.340;10.886;2023-04-30T13:22:54;18.70;96.40
9385;DHT22;4732;49.340;10.886;2023-04-30T13:25:20;18.60;95.70
9385;DHT22;4732;49.340;10.886;2023-04-30T13:27:46;18.50;96.00
9385;DHT22;4732;49.340;10.886;2023-04-30T13:30:12;18.40;95.50
9385;DHT22;4732;49.340;10.886;2023-04-30T13:32:37;18.20;95.40
9385;DHT22;4732;49.340;10.886;2023-04-30T13:35:03;18.00;95.70
9385;DHT22;4732;49.340;10.886;2023-04-30T13:37:29;18.20;96.60
9385;DHT22;4732;49.340;10.886;2023-04-30T13:39:57;18.70;98.80
9385;DHT22;4732;49.340;10.886;2023-04-30T13:42:24;19.20;96.70
9385;DHT22;4732;49.340;10.886;2023-04-30T13:44:50;19.20;95.60
9385;DHT22;4732;49.340;10.886;2023-04-30T13:47:17;19.00;97.00
9385;DHT22;4732;49.340;10.886;2023-04-30T13:49:42;18.80;95.40
9385;DHT22;4732;49.340;10.886;2023-04-30T13:52:08;18.70;96.30
9385;DHT22;4732;49.340;10.886;2023-04-30T13:54:33;18.80;96.20
9385;DHT22;4732;49.340;10.886;2023-04-30T13:56:59;19.00;95.70
9385;DHT22;4732;49.340;10.886;2023-04-30T13:59:24;19.00;95.10
9385;DHT22;4732;49.340;10.886;2023-04-30T14:01:50;18.80;95.00
9385;DHT22;4732;49.340;10.886;2023-04-30T14:04:16;18.70;95.60
9385;DHT22;4732;49.340;10.886;2023-04-30T14:06:41;18.40;96.40
9385;DHT22;4732;49.340;10.886;2023-04-30T14:09:07;18.20;97.40
9385;DHT22;4732;49.340;10.886;2023-04-30T14:11:33;18.40;95.90
9385;DHT22;4732;49.340;10.886;2023-04-30T14:13:58;18.20;96.60
9385;DHT22;4732;49.340;10.886;2023-04-30T14:16:24;18.10;94.90
9385;DHT22;4732;49.340;10.886;2023-04-30T14:18:50;17.80;96.20
9385;DHT22;4732;49.340;10.886;2023-04-30T14:21:15;17.90;96.50
9385;DHT22;4732;49.340;10.886;2023-04-30T14:23:41;18.40;96.70
9385;DHT22;4732;49.340;10.886;2023-04-30T14:26:07;18.70;96.80
9385;DHT22;4732;49.340;10.886;2023-04-30T14:28:32;18.90;94.70
9385;DHT22;4732;49.340;10.886;2023-04-30T14:30:58;19.30;95.30
9385;DHT22;4732;49.340;10.886;2023-04-30T14:33:23;19.80;94.70
9385;DHT22;4732;49.340;10.886;2023-04-30T14:35:49;19.80;93.80
9385;DHT22;4732;49.340;10.886;2023-04-30T14:38:14;19.60;93.80
9385;DHT22;4732;49.340;10.886;2023-04-30T14:40:42;19.60;94.60
9385;DHT22;4732;49.340;10.886;2023-04-30T14:43:07;19.80;93.70
9385;DHT22;4732;49.340;10.886;2023-04-30T14:45:33;19.90;94.60
9385;DHT22;4732;49.340;10.886;2023-04-30T14:47:58;20.20;94.40
9385;DHT22;4732;49.340;10.886;2023-04-30T14:50:24;20.40;93.90
9385;DHT22;4732;49.340;10.886;2023-04-30T14:52:50;20.70;94.30
9385;DHT22;4732;49.340;10.886;2023-04-30T14:55:15;20.80;92.90
9385;DHT22;4732;49.340;10.886;2023-04-30T14:57:41;20.50;92.10
9385;DHT22;4732;49.340;10.886;2023-04-30T15:00:07;20.10;93.20
9385;DHT22;4732;49.340;10.886;2023-04-30T15:02:34;19.70;93.40
9385;DHT22;4732;49.340;10.886;2023-04-30T15:05:01;19.50;94.00
9385;DHT22;4732;49.340;10.886;2023-04-30T15:07:28;19.30;93.80
9385;DHT22;4732;49.340;10.886;2023-04-30T15:09:53;19.00;94.20
9385;DHT22;4732;49.340;10.886;2023-04-30T15:12:19;18.90;94.10
9385;DHT22;4732;49.340;10.886;2023-04-30T15:14:44;18.80;93.40
9385;DHT22;4732;49.340;10.886;2023-04-30T15:17:10;18.70;94.10
9385;DHT22;4732;49.340;10.886;2023-04-30T15:19:35;18.60;95.20
9385;DHT22;4732;49.340;10.886;2023-04-30T15:22:01;18.40;96.20
9385;DHT22;4732;49.340;10.886;2023-04-30T15:24:27;18.40;96.30
9385;DHT22;4732;49.340;10.886;2023-04-30T15:26:52;18.40;96.20
9385;DHT22;4732;49.340;10.886;2023-04-30T15:29:19;18.30;95.80
9385;DHT22;4732;49.340;10.886;2023-04-30T15:31:45;18.30;94.30
9385;DHT22;4732;49.340;10.886;2023-04-30T15:34:10;18.30;94.30
9385;DHT22;4732;49.340;10.886;2023-04-30T15:36:36;18.30;94.80
9385;DHT22;4732;49.340;10.886;2023-04-30T15:39:02;18.60;94.80
9385;DHT22;4732;49.340;10.886;2023-04-30T15:41:27;18.80;94.30
9385;DHT22;4732;49.340;10.886;2023-04-30T15:43:53;19.00;94.00
9385;DHT22;4732;49.340;10.886;2023-04-30T15:46:18;19.20;92.70
9385;DHT22;4732;49.340;10.886;2023-04-30T15:48:44;19.40;93.70
9385;DHT22;4732;49.340;10.886;2023-04-30T15:51:10;19.70;92.10
9385;DHT22;4732;49.340;10.886;2023-04-30T15:53:35;19.80;92.40
9385;DHT22;4732;49.340;10.886;2023-04-30T15:56:01;19.80;93.00
9385;DHT22;4732;49.340;10.886;2023-04-30T15:58:28;19.90;93.50
9385;DHT22;4732;49.340;10.886;2023-04-30T16:00:54;20.00;92.20
9385;DHT22;4732;49.340;10.886;2023-04-30T16:03:19;20.00;92.70
9385;DHT22;4732;49.340;10.886;2023-04-30T16:05:45;20.00;91.50
9385;DHT22;4732;49.340;10.886;2023-04-30T16:08:10;19.90;92.20
9385;DHT22;4732;49.340;10.886;2023-04-30T16:10:36;19.80;92.50
9385;DHT22;4732;49.340;10.886;2023-04-30T16:13:03;19.80;91.60
9385;DHT22;4732;49.340;10.886;2023-04-30T16:15:28;19.50;91.40
9385;DHT22;4732;49.340;10.886;2023-04-30T16:17:55;19.50;92.80
9385;DHT22;4732;49.340;10.886;2023-04-30T16:20:21;19.30;92.80
9385;DHT22;4732;49.340;10.886;2023-04-30T16:22:47;19.10;93.40
9385;DHT22;4732;49.340;10.886;2023-04-30T16:25:14;18.80;93.00
9385;DHT22;4732;49.340;10.886;2023-04-30T16:27:40;18.70;93.30
9385;DHT22;4732;49.340;10.886;2023-04-30T16:30:06;18.60;92.90
9385;DHT22;4732;49.340;10.886;2023-04-30T16:32:32;18.40;93.10
9385;DHT22;4732;49.340;10.886;2023-04-30T16:34:58;18.40;92.80
9385;DHT22;4732;49.340;10.886;2023-04-30T16:37:23;18.30;93.00
9385;DHT22;4732;49.340;10.886;2023-04-30T16:39:49;18.10;92.50
9385;DHT22;4732;49.340;10.886;2023-04-30T16:42:14;18.10;92.90
9385;DHT22;4732;49.340;10.886;2023-04-30T16:44:40;18.10;93.60
9385;DHT22;4732;49.340;10.886;2023-04-30T16:47:05;18.10;93.40
9385;DHT22;4732;49.340;10.886;2023-04-30T16:49:31;18.10;94.00
9385;DHT22;4732;49.340;10.886;2023-04-30T16:51:56;18.00;93.10
9385;DHT22;4732;49.340;10.886;2023-04-30T16:54:22;17.90;92.90
9385;DHT22;4732;49.340;10.886;2023-04-30T16:56:47;17.80;93.50
9385;DHT22;4732;49.340;10.886;2023-04-30T16:59:13;17.70;94.40
9385;DHT22;4732;49.340;10.886;2023-04-30T17:01:38;17.60;94.10
9385;DHT22;4732;49.340;10.886;2023-04-30T17:04:04;17.50;94.30
9385;DHT22;4732;49.340;10.886;2023-04-30T17:06:29;17.30;95.10
9385;DHT22;4732;49.340;10.886;2023-04-30T17:08:55;17.20;96.30
9385;DHT22;4732;49.340;10.886;2023-04-30T17:11:21;17.20;96.10
9385;DHT22;4732;49.340;10.886;2023-04-30T17:13:48;17.20;95.70
9385;DHT22;4732;49.340;10.886;2023-04-30T17:16:13;17.10;96.00
9385;DHT22;4732;49.340;10.886;2023-04-30T17:18:39;17.10;96.80
9385;DHT22;4732;49.340;10.886;2023-04-30T17:21:05;17.00;96.40
9385;DHT22;4732;49.340;10.886;2023-04-30T17:23:30;17.00;96.00
9385;DHT22;4732;49.340;10.886;2023-04-30T17:25:56;16.90;96.70
9385;DHT22;4732;49.340;10.886;2023-04-30T17:28:22;16.80;96.50
9385;DHT22;4732;49.340;10.886;2023-04-30T17:30:48;16.70;97.00
9385;DHT22;4732;49.340;10.886;2023-04-30T17:33:14;16.70;97.00
9385;DHT22;4732;49.340;10.886;2023-04-30T17:35:39;16.60;97.00
9385;DHT22;4732;49.340;10.886;2023-04-30T17:38:05;16.50;97.50
9385;DHT22;4732;49.340;10.886;2023-04-30T17:40:30;16.50;97.60
9385;DHT22;4732;49.340;10.886;2023-04-30T17:42:56;16.50;97.30
9385;DHT22;4732;49.340;10.886;2023-04-30T17:45:22;16.40;97.50
9385;DHT22;4732;49.340;10.886;2023-04-30T17:47:47;16.30;97.80
9385;DHT22;4732;49.340;10.886;2023-04-30T17:50:14;16.30;98.00
9385;DHT22;4732;49.340;10.886;2023-04-30T17:52:39;16.10;98.00
9385;DHT22;4732;49.340;10.886;2023-04-30T17:55:07;16.00;98.80
9385;DHT22;4732;49.340;10.886;2023-04-30T17:57:33;16.00;98.20
9385;DHT22;4732;49.340;10.886;2023-04-30T17:59:58;15.90;98.70
9385;DHT22;4732;49.340;10.886;2023-04-30T18:02:24;15.80;99.70
9385;DHT22;4732;49.340;10.886;2023-04-30T18:04:50;15.70;99.90
9385;DHT22;4732;49.340;10.886;2023-04-30T18:07:16;15.60;99.90
9385;DHT22;4732;49.340;10.886;2023-04-30T18:09:42;15.50;99.90
9385;DHT22;4732;49.340;10.886;2023-04-30T18:12:07;15.40;99.90
9385;DHT22;4732;49.340;10.886;2023-04-30T18:14:33;15.30;99.90
9385;DHT22;4732;49.340;10.886;2023-04-30T18:16:58;15.30;99.90
9385;DHT22;4732;49.340;10.886;2023-04-30T18:56:06;12.70;99.90
9385;DHT22;4732;49.340;10.886;2023-04-30T18:58:32;12.80;99.90
9385;DHT22;4732;49.340;10.886;2023-04-30T19:00:57;12.60;99.90
9385;DHT22;4732;49.340;10.886;2023-04-30T19:03:23;12.50;99.90
9385;DHT22;4732;49.340;10.886;2023-04-30T19:05:53;12.50;99.90
9385;DHT22;4732;49.340;10.886;2023-04-30T19:08:19;12.30;99.90
9385;DHT22;4732;49.340;10.886;2023-04-30T19:10:47;12.30;99.90
9385;DHT22;4732;49.340;10.886;2023-04-30T19:13:13;12.20;99.90
9385;DHT22;4732;49.340;10.886;2023-04-30T19:15:41;12.10;99.90
9385;DHT22;4732;49.340;10.886;2023-04-30T19:18:07;11.90;99.90
9385;DHT22;4732;49.340;10.886;2023-04-30T19:20:34;11.80;99.90
9385;DHT22;4732;49.340;10.886;2023-04-30T19:23:00;11.60;99.90
9385;DHT22;4732;49.340;10.886;2023-04-30T19:25:25;11.50;99.90
9385;DHT22;4732;49.340;10.886;2023-04-30T19:27:51;11.50;99.90
9385;DHT22;4732;49.340;10.886;2023-04-30T19:30:17;11.40;99.90
9385;DHT22;4732;49.340;10.886;2023-04-30T19:32:42;11.30;99.90
9385;DHT22;4732;49.340;10.886;2023-04-30T19:35:08;11.20;99.90
9385;DHT22;4732;49.340;10.886;2023-04-30T19:37:33;11.20;99.90
9385;DHT22;4732;49.340;10.886;2023-04-30T19:39:59;11.10;99.90
9385;DHT22;4732;49.340;10.886;2023-04-30T19:42:24;11.10;99.90
9385;DHT22;4732;49.340;10.886;2023-04-30T19:44:51;11.00;99.90
9385;DHT22;4732;49.340;10.886;2023-04-30T19:47:17;11.00;99.90
9385;DHT22;4732;49.340;10.886;2023-04-30T19:49:42;10.80;99.90
9385;DHT22;4732;49.340;10.886;2023-04-30T19:52:08;10.70;99.90